Погода Норкона неделю

Калифорния, США

01 - 07 сентября
  • 01сентября
    Сегодня
    +14°
    +30°
    Ясно и безоблачно
    ВремяПогодаТемператураВлажностьДавлениеВетер, м/сВероятность осадков
    02:00Ясно и безоблачно+19°C84 %744 мм0.3 м/с2 %
    05:00Ясно и безоблачно+17°C92 %743 мм0.1 м/с2 %
    08:00Ясно и безоблачно+18°C81 %744 мм1.1 м/с2 %
    11:00Ясно и безоблачно+26°C42 %745 мм1.5 м/с2 %
    14:00Ясно и безоблачно+30°C27 %744 мм6.5 м/с2 %
    17:00Ясно и безоблачно+29°C34 %743 мм6.7 м/с2 %
    20:00Ясно и безоблачно+22°C56 %743 мм4.1 м/с2 %
    23:00Ясно и безоблачно+18°C69 %744 мм2.1 м/с2 %
  • 02сентября
    Среда
    +14°
    +31°
    Ясно и безоблачно
    ВремяПогодаТемператураВлажностьДавлениеВетер, м/сВероятность осадков
    02:00Ясно и безоблачно+16°C83 %745 мм0.0 м/с2 %
    05:00Ясно и безоблачно+14°C86 %744 мм0.1 м/с2 %
    08:00Ясно и безоблачно+18°C74 %745 мм0.8 м/с2 %
    11:00Ясно и безоблачно+26°C40 %745 мм1.3 м/с2 %
    14:00Ясно и безоблачно+30°C29 %744 мм5.7 м/с2 %
    17:00Ясно и безоблачно+29°C33 %743 мм6.5 м/с2 %
    20:00Ясно и безоблачно+22°C54 %743 мм4.3 м/с2 %
    23:00Ясно и безоблачно+18°C72 %744 мм1.3 м/с2 %
  • 03сентября
    Четверг
    +14°
    +30°
    Ясно и безоблачно
    ВремяПогодаТемператураВлажностьДавлениеВетер, м/сВероятность осадков
    02:00Ясно и безоблачно+16°C82 %743 мм0.0 м/с2 %
    05:00Ясно и безоблачно+14°C84 %743 мм0.3 м/с2 %
    08:00Ясно и безоблачно+18°C69 %744 мм1.2 м/с2 %
    11:00Ясно и безоблачно+26°C39 %743 мм1.1 м/с2 %
    14:00Ясно и безоблачно+30°C33 %742 мм5.2 м/с2 %
    17:00Ясно и безоблачно+28°C44 %741 мм6.4 м/с2 %
    20:00Ясно и безоблачно+22°C69 %741 мм4.2 м/с2 %
    23:00Ясно и безоблачно+18°C81 %742 мм1.3 м/с2 %
  • 04сентября
    Пятница
    +15°
    +30°
    Ясно и безоблачно
    ВремяПогодаТемператураВлажностьДавлениеВетер, м/сВероятность осадков
    02:00Ясно и безоблачно+16°C89 %742 мм0.0 м/с2 %
    05:00Ясно и безоблачно+14°C95 %742 мм0.1 м/с2 %
    08:00Ясно и безоблачно+18°C83 %743 мм1.3 м/с2 %
    11:00Ясно и безоблачно+26°C46 %743 мм1.3 м/с2 %
    14:00Ясно и безоблачно+30°C32 %742 мм4.6 м/с2 %
    17:00Ясно и безоблачно+29°C37 %741 мм5.7 м/с2 %
    20:00Ясно и безоблачно+22°C66 %742 мм3.6 м/с2 %
    23:00Ясно и безоблачно+19°C77 %743 мм0.9 м/с2 %
  • 05сентября
    Суббота
    +19°
    +32°
    Ясно и безоблачно
    ВремяПогодаТемператураВлажностьДавлениеВетер, м/сВероятность осадков
    02:00Ясно и безоблачно+17°C84 %743 мм0.0 м/с4 %
    05:00Ясно и безоблачно+15°C84 %742 мм0.0 м/с7 %
    08:00Ясно и безоблачно+20°C68 %743 мм1.1 м/с12 %
    11:00Ясно и безоблачно+29°C28 %743 мм1.3 м/с16 %
    14:00Ясно и безоблачно+32°C23 %742 мм4.1 м/с24 %
    17:00Ясно и безоблачно+31°C28 %741 мм5.0 м/с23 %
    20:00Ясно и безоблачно+25°C52 %742 мм3.9 м/с18 %
    23:00Небольшая облачность+22°C62 %743 мм0.9 м/с24 %
  • 06сентября
    Воскресенье
    +20°
    +33°
    Ясно и безоблачно
    ВремяПогодаТемператураВлажностьДавлениеВетер, м/сВероятность осадков
    05:00Небольшая облачность+19°C83 %742 мм0.8 м/с24 %
    11:00Ясно и безоблачно+29°C42 %743 мм0.5 м/с23 %
    17:00Ясно и безоблачно+32°C63 %741 мм2.9 м/с34 %
    23:00Ясно и безоблачно+24°C54 %743 мм1.4 м/с25 %
  • 07сентября
    Понедельник
    +18°
    +33°
    Ясно и безоблачно
    ВремяПогодаТемператураВлажностьДавлениеВетер, м/сВероятность осадков
    05:00Ясно и безоблачно+20°C66 %742 мм1.2 м/с21 %
    11:00Ясно и безоблачно+29°C32 %743 мм2.2 м/с21 %
    17:00Ясно и безоблачно+30°C25 %741 мм4.3 м/с28 %
    23:00Ясно и безоблачно+22°C60 %742 мм1.2 м/с20 %
Мы используем cookies
Соглашаюсь